Aérodrome :
LOGIN :

S'inscrire | Disclaimer

   EN    FR    IT 

 










Légende :    VFR   VFR Marginal   IFR   IFR Intensif   IFR Très Intensif
Visi : 
Plafond : 
>= 8 km
>= 3000ft
5 à 8 km
1000 à 3000 ft
1500m à 5 km
500 à 1000 ft
800 à 1500m
200 à 500 ft
< 800m
< 200 ft
Symboles :   Orages  Brouillard  Fortes neiges  Fortes précipitations  Vent > 20 kt
SIGMETs :   Divers  Orages  Givrage  Turbulence  Onde Orograph.  Cendres Volcan.






- Altitude de l'aérodrome : 614 ft
- Code IATA : CRL


EBCI - Charleroi

DERNIER METAR :
  • 192350Z 29005KT 260V330 9999 FEW035 03/01 Q1018 NOSIG

METARs EXPIRÉS :
  • 192320Z 30006KT 270V360 9999 FEW035 04/01 Q1018 NOSIG
  • 192250Z 29006KT 260V330 9999 FEW035 04/01 Q1018 NOSIG
  • 192220Z 31008KT 270V350 9999 FEW035 04/01 Q1017 NOSIG
  • 192150Z 30007KT 260V340 9999 FEW025 BKN045 04/01 Q1017 NOSIG
  • 192120Z 30006KT 260V340 9999 FEW025 BKN045 04/01 Q1017 NOSIG
  • 192050Z 31008KT 280V350 9999 FEW025 SCT045 04/01 Q1017 NOSIG
  • 192020Z 32008KT 280V350 6000 -SHRA FEW025 BKN045 05/02 Q1017 TEMPO 32016G28KT 4000 SHRA
  • 191950Z 31007KT 270V350 9999 FEW025 BKN045 05/02 Q1016 TEMPO 32016G28KT 4000 SHRA
  • 191920Z 32011G21KT 290V350 6000 -SHRA FEW020 BKN035 05/02 Q1016 TEMPO 32016G28KT 4000 SHRA
  • 191850Z 31008KT 270V340 9999 FEW020 BKN035 06/02 Q1015 TEMPO 32016G28KT 4000 SHRA

TAF TAF EBCI
Valide du 20 à 00h jusqu'au 21 à 06h UTC


192315Z 2000/2106 31010KT 9999 SCT025
PROB30
TEMPO 2008/2102 31015G25KT 4500 -SHRA



MET'MAP, la Météo Aéronautique d'un coup d'oeil ! - Copyright ORBIFLY Décembre 2007 - Disclaimer

ORBIFLY MET'MAP TEAM :

Programmation & Développement : Alexandra Zaïnal
Sur une idée originale de : Baudouin d'Aumeries
Soutien technique & logistique : Manuel Goepfert
Assistance : Marc-Olivier Méhu




SOURCES & CREDITS :

   NOAA